Time;durP1;ratioP1;P1;durP2;ratioP2;P2;SDS_P1;SDS_P2;PMS_P1;PMS_P2;Temp;Humidity;BMP_temperature;BMP_pressure;BME280_temperature;BME280_humidity;BME280_pressure;Samples;Min_cycle;Max_cycle;Signal;HPM_P1;HPM_P2
2024/03/17 00:01:22;;;;;;;10.32;3.03;;;;;;;;;;5062360;28;20487;-66
2024/03/17 00:04:08;;;;;;;10.75;2.25;;;;;;;;;;5060930;28;20028;-66
2024/03/17 00:06:54;;;;;;;8.65;2.13;;;;;;;;;;5066825;28;20028;-66
2024/03/17 00:09:41;;;;;;;11.02;2.28;;;;;;;;;;5068834;28;20035;-66
2024/03/17 00:12:26;;;;;;;17.77;2.28;;;;;;;;;;5066118;28;20103;-66
2024/03/17 00:15:12;;;;;;;9.73;2.10;;;;;;;;;;5086607;28;20119;-65
2024/03/17 00:17:57;;;;;;;9.70;1.77;;;;;;;;;;5080519;28;20020;-66
2024/03/17 00:20:43;;;;;;;8.48;2.22;;;;;;;;;;5094978;28;20023;-66
2024/03/17 00:23:29;;;;;;;4.28;1.95;;;;;;;;;;5087416;28;20498;-66
2024/03/17 00:26:15;;;;;;;9.00;2.67;;;;;;;;;;5088771;28;20405;-66
2024/03/17 00:29:03;;;;;;;9.95;2.72;;;;;;;;;;5096469;28;20068;-66
2024/03/17 00:31:48;;;;;;;4.20;1.90;;;;;;;;;;5086535;28;20033;-66
2024/03/17 00:34:34;;;;;;;8.13;2.80;;;;;;;;;;5091242;28;20036;-66
2024/03/17 00:37:19;;;;;;;5.30;2.25;;;;;;;;;;5085521;28;20110;-66
2024/03/17 00:40:06;;;;;;;7.50;2.85;;;;;;;;;;5087554;28;20547;-66
2024/03/17 00:42:54;;;;;;;6.30;2.00;;;;;;;;;;5088219;28;20046;-66
2024/03/17 00:45:39;;;;;;;11.20;2.60;;;;;;;;;;5087676;28;20029;-66
2024/03/17 00:48:25;;;;;;;13.27;2.40;;;;;;;;;;5088919;28;20408;-66
2024/03/17 00:51:10;;;;;;;5.47;1.55;;;;;;;;;;5084549;28;20028;-66
2024/03/17 00:53:56;;;;;;;7.90;2.13;;;;;;;;;;5085359;28;20211;-66
2024/03/17 00:56:42;;;;;;;3.85;1.75;;;;;;;;;;5085971;28;20028;-66
2024/03/17 00:59:27;;;;;;;5.95;1.75;;;;;;;;;;5089828;28;20024;-67
2024/03/17 01:02:16;;;;;;;9.88;2.45;;;;;;;;;;5086742;28;20505;-66
2024/03/17 01:05:01;;;;;;;7.85;1.98;;;;;;;;;;5089476;28;20111;-66
2024/03/17 01:07:49;;;;;;;3.45;1.77;;;;;;;;;;5085739;28;20033;-66
2024/03/17 01:10:39;;;;;;;4.70;1.75;;;;;;;;;;5084138;28;20036;-66
2024/03/17 01:13:24;;;;;;;19.40;2.38;;;;;;;;;;5093171;28;20055;-66
2024/03/17 01:16:10;;;;;;;7.95;2.50;;;;;;;;;;5085945;28;20103;-66
2024/03/17 01:18:55;;;;;;;10.45;2.15;;;;;;;;;;5092014;28;20032;-66
2024/03/17 01:21:41;;;;;;;15.80;2.95;;;;;;;;;;5086423;28;20528;-66
2024/03/17 01:24:31;;;;;;;8.88;1.77;;;;;;;;;;5085417;28;20020;-66
2024/03/17 01:27:17;;;;;;;6.90;2.17;;;;;;;;;;5093031;28;20020;-66
2024/03/17 01:30:02;;;;;;;7.95;2.10;;;;;;;;;;5092938;28;20031;-67
2024/03/17 01:32:48;;;;;;;8.07;2.13;;;;;;;;;;5093976;28;20539;-66
2024/03/17 01:35:34;;;;;;;11.35;2.47;;;;;;;;;;5093242;28;20063;-66
2024/03/17 01:38:21;;;;;;;8.18;2.38;;;;;;;;;;5092894;28;20058;-67
2024/03/17 01:41:07;;;;;;;6.00;2.13;;;;;;;;;;5093175;28;20085;-66
2024/03/17 01:43:52;;;;;;;11.20;2.38;;;;;;;;;;5093048;28;20047;-66
2024/03/17 01:46:38;;;;;;;6.95;2.10;;;;;;;;;;5092687;28;20031;-66
2024/03/17 01:49:24;;;;;;;10.77;2.55;;;;;;;;;;5093653;28;20027;-66
2024/03/17 01:52:09;;;;;;;7.40;1.90;;;;;;;;;;5081763;28;20027;-66
2024/03/17 01:54:55;;;;;;;15.05;2.38;;;;;;;;;;5092656;28;20031;-66
2024/03/17 01:57:42;;;;;;;9.15;2.20;;;;;;;;;;5092360;28;20024;-66
2024/03/17 02:00:29;;;;;;;7.60;2.03;;;;;;;;;;5090870;28;20019;-66
2024/03/17 02:03:15;;;;;;;11.93;3.45;;;;;;;;;;5092457;28;20052;-67
2024/03/17 02:06:00;;;;;;;11.60;2.22;;;;;;;;;;5092429;28;20451;-66
2024/03/17 02:08:54;;;;;;;5.43;1.52;;;;;;;;;;5092724;28;20020;-66
2024/03/17 02:11:40;;;;;;;7.68;2.20;;;;;;;;;;5087002;28;20027;-67
2024/03/17 02:14:25;;;;;;;10.68;1.90;;;;;;;;;;5085834;28;20416;-66
2024/03/17 02:17:11;;;;;;;4.50;1.50;;;;;;;;;;5091005;28;20110;-66
2024/03/17 02:19:57;;;;;;;11.38;2.55;;;;;;;;;;5093008;28;20039;-66
2024/03/17 02:22:42;;;;;;;4.95;1.70;;;;;;;;;;5092595;28;20031;-66
2024/03/17 02:25:28;;;;;;;3.55;1.42;;;;;;;;;;5081604;28;20024;-66
2024/03/17 02:28:13;;;;;;;5.75;2.00;;;;;;;;;;5092197;28;20020;-66
2024/03/17 02:30:59;;;;;;;5.20;1.95;;;;;;;;;;5092450;28;20036;-66
2024/03/17 02:33:45;;;;;;;1.63;1.48;;;;;;;;;;5091598;28;20035;-66
2024/03/17 02:36:31;;;;;;;6.63;1.92;;;;;;;;;;5092288;28;20160;-66
2024/03/17 02:39:35;;;;;;;4.18;2.20;;;;;;;;;;5092259;28;20116;-66
2024/03/17 02:42:21;;;;;;;5.95;1.50;;;;;;;;;;5091801;28;20500;-66
2024/03/17 02:45:08;;;;;;;6.28;2.38;;;;;;;;;;5091808;28;20012;-66
2024/03/17 02:47:54;;;;;;;7.18;1.63;;;;;;;;;;5091832;28;20039;-66
2024/03/17 02:50:40;;;;;;;6.38;1.95;;;;;;;;;;5092711;28;20024;-66
2024/03/17 02:53:26;;;;;;;3.85;2.17;;;;;;;;;;5092567;28;20101;-66
2024/03/17 02:56:11;;;;;;;8.65;1.98;;;;;;;;;;5092362;28;20050;-66
2024/03/17 02:58:57;;;;;;;9.65;2.55;;;;;;;;;;5092376;28;20501;-66
2024/03/17 03:01:44;;;;;;;3.33;1.63;;;;;;;;;;5091907;28;20020;-66
2024/03/17 03:04:30;;;;;;;5.28;1.80;;;;;;;;;;5092392;28;20077;-66
2024/03/17 03:07:16;;;;;;;6.18;2.40;;;;;;;;;;5093761;28;20036;-66
2024/03/17 03:10:01;;;;;;;7.32;2.65;;;;;;;;;;5092521;28;20478;-66
2024/03/17 03:12:47;;;;;;;4.00;1.90;;;;;;;;;;5092658;28;20051;-66
2024/03/17 03:15:33;;;;;;;17.70;3.17;;;;;;;;;;5091801;28;20031;-66
2024/03/17 03:18:18;;;;;;;6.32;2.05;;;;;;;;;;5091974;28;20106;-66
2024/03/17 03:21:05;;;;;;;5.50;2.15;;;;;;;;;;5091980;28;20477;-66
2024/03/17 03:23:51;;;;;;;5.88;1.88;;;;;;;;;;5091409;28;20028;-66
2024/03/17 03:26:38;;;;;;;11.60;1.95;;;;;;;;;;5092777;28;20032;-66
2024/03/17 03:29:23;;;;;;;2.13;1.30;;;;;;;;;;5092344;28;20103;-66
2024/03/17 03:32:09;;;;;;;7.15;2.03;;;;;;;;;;5091506;28;20162;-66
2024/03/17 03:34:55;;;;;;;3.35;1.35;;;;;;;;;;5091756;28;20031;-66
2024/03/17 03:37:41;;;;;;;10.23;2.20;;;;;;;;;;5092009;28;20419;-66
2024/03/17 03:40:27;;;;;;;2.92;1.63;;;;;;;;;;5091264;28;20104;-66
2024/03/17 03:43:13;;;;;;;8.90;1.85;;;;;;;;;;5091786;28;20060;-66
2024/03/17 03:46:00;;;;;;;2.63;1.70;;;;;;;;;;5094589;28;20370;-66
2024/03/17 03:48:45;;;;;;;5.13;2.25;;;;;;;;;;5095836;28;20036;-66
2024/03/17 03:51:31;;;;;;;3.80;2.10;;;;;;;;;;5095842;28;20020;-66
2024/03/17 03:54:17;;;;;;;9.52;1.65;;;;;;;;;;5095891;28;20503;-66
2024/03/17 03:57:02;;;;;;;7.70;1.88;;;;;;;;;;5095745;28;20035;-66
2024/03/17 03:59:48;;;;;;;5.68;1.83;;;;;;;;;;5095638;28;20056;-66
2024/03/17 04:02:34;;;;;;;12.77;2.70;;;;;;;;;;5095369;28;20024;-66
2024/03/17 04:05:20;;;;;;;9.63;2.72;;;;;;;;;;5095177;28;20393;-66
2024/03/17 04:08:05;;;;;;;3.33;2.13;;;;;;;;;;5096331;28;20028;-66
2024/03/17 04:10:51;;;;;;;9.85;2.55;;;;;;;;;;5095051;28;20023;-66
2024/03/17 04:13:37;;;;;;;6.32;1.73;;;;;;;;;;5095172;28;20110;-66
2024/03/17 04:16:22;;;;;;;5.65;1.65;;;;;;;;;;5095736;28;20557;-66
2024/03/17 04:19:08;;;;;;;8.77;1.70;;;;;;;;;;5090298;28;20421;-66
2024/03/17 04:21:54;;;;;;;7.05;1.65;;;;;;;;;;5085212;28;20028;-66
2024/03/17 04:24:40;;;;;;;5.88;1.77;;;;;;;;;;5080955;28;20081;-66
2024/03/17 04:27:26;;;;;;;12.48;2.30;;;;;;;;;;5075598;28;20036;-66
2024/03/17 04:30:12;;;;;;;4.90;1.65;;;;;;;;;;5072380;28;20027;-66
2024/03/17 04:32:57;;;;;;;8.50;2.08;;;;;;;;;;5092584;28;20027;-66
2024/03/17 04:35:43;;;;;;;4.30;1.70;;;;;;;;;;5094264;28;20016;-66
2024/03/17 04:38:29;;;;;;;11.05;2.10;;;;;;;;;;5094387;28;20023;-66
2024/03/17 04:41:16;;;;;;;5.97;2.17;;;;;;;;;;5094768;28;20032;-66
2024/03/17 04:44:06;;;;;;;9.02;2.22;;;;;;;;;;5093588;28;20056;-66
2024/03/17 04:46:51;;;;;;;7.88;1.90;;;;;;;;;;5096226;28;20062;-66
2024/03/17 04:49:38;;;;;;;8.70;1.65;;;;;;;;;;5093466;28;20053;-66
2024/03/17 04:52:23;;;;;;;2.13;1.50;;;;;;;;;;5094403;28;20024;-66
2024/03/17 04:55:09;;;;;;;4.05;2.55;;;;;;;;;;5094159;28;20574;-66
2024/03/17 04:57:55;;;;;;;5.38;2.10;;;;;;;;;;5093918;28;20024;-66
2024/03/17 05:00:40;;;;;;;3.42;1.60;;;;;;;;;;5094446;28;20016;-66
2024/03/17 05:03:26;;;;;;;6.18;2.15;;;;;;;;;;5094229;28;20508;-68
2024/03/17 05:06:12;;;;;;;6.25;1.98;;;;;;;;;;5094929;28;20111;-69
2024/03/17 05:08:58;;;;;;;3.40;1.58;;;;;;;;;;5094155;28;20026;-69
2024/03/17 05:11:43;;;;;;;9.50;1.88;;;;;;;;;;5093939;28;20028;-69
2024/03/17 05:14:29;;;;;;;6.95;2.78;;;;;;;;;;5093539;28;20020;-68
2024/03/17 05:17:15;;;;;;;5.97;1.73;;;;;;;;;;5093234;28;20023;-69
2024/03/17 05:20:00;;;;;;;3.08;1.38;;;;;;;;;;5093449;28;20020;-69
2024/03/17 05:22:47;;;;;;;6.07;2.40;;;;;;;;;;5093911;28;20027;-69
2024/03/17 05:25:36;;;;;;;9.15;2.28;;;;;;;;;;5093346;28;20082;-69
2024/03/17 05:28:26;;;;;;;3.42;2.00;;;;;;;;;;5092626;28;20044;-69
2024/03/17 05:31:15;;;;;;;6.55;1.80;;;;;;;;;;5151269;22;20054;-67
2024/03/17 05:34:00;;;;;;;4.13;1.60;;;;;;;;;;5109119;28;20027;-67
2024/03/17 05:36:46;;;;;;;6.82;2.08;;;;;;;;;;5112840;28;20020;-67
2024/03/17 05:39:32;;;;;;;3.20;1.83;;;;;;;;;;5099028;28;20030;-67
2024/03/17 05:42:19;;;;;;;6.63;2.47;;;;;;;;;;5113111;28;20027;-67
2024/03/17 05:45:05;;;;;;;8.65;2.13;;;;;;;;;;5114324;28;20114;-67
2024/03/17 05:47:51;;;;;;;3.83;1.92;;;;;;;;;;5114605;28;20027;-67
2024/03/17 05:50:36;;;;;;;5.00;1.48;;;;;;;;;;5112706;28;20032;-67
2024/03/17 05:53:24;;;;;;;6.45;2.58;;;;;;;;;;5114518;28;20046;-67
2024/03/17 05:56:11;;;;;;;5.07;1.85;;;;;;;;;;5098853;28;20024;-67
2024/03/17 05:58:56;;;;;;;5.85;2.67;;;;;;;;;;5099713;28;20023;-67
2024/03/17 06:01:42;;;;;;;2.38;1.48;;;;;;;;;;5112900;28;20020;-67
2024/03/17 06:04:28;;;;;;;2.67;2.10;;;;;;;;;;5093404;28;20080;-67
2024/03/17 06:07:13;;;;;;;5.63;1.80;;;;;;;;;;5093235;28;20491;-66
2024/03/17 06:09:59;;;;;;;4.72;2.05;;;;;;;;;;5092868;28;20143;-66
2024/03/17 06:12:44;;;;;;;5.72;1.98;;;;;;;;;;5092792;28;20016;-66
2024/03/17 06:15:30;;;;;;;4.88;1.70;;;;;;;;;;5113025;28;20028;-66
2024/03/17 06:18:17;;;;;;;6.85;2.83;;;;;;;;;;5107109;27;20048;-66
2024/03/17 06:21:05;;;;;;;4.28;2.03;;;;;;;;;;5113767;28;20028;-66
2024/03/17 06:23:50;;;;;;;8.32;2.25;;;;;;;;;;5107899;28;20028;-66
2024/03/17 06:26:36;;;;;;;11.43;1.98;;;;;;;;;;5106231;28;20397;-66
2024/03/17 06:29:21;;;;;;;9.18;2.22;;;;;;;;;;5096702;28;20039;-66
2024/03/17 06:32:07;;;;;;;11.88;2.15;;;;;;;;;;5095468;28;20027;-66
2024/03/17 06:34:53;;;;;;;4.93;1.70;;;;;;;;;;5106335;28;20027;-67
2024/03/17 06:37:39;;;;;;;11.88;2.35;;;;;;;;;;5077115;28;20436;-66
2024/03/17 06:40:25;;;;;;;5.97;1.58;;;;;;;;;;5090955;28;20020;-66
2024/03/17 06:43:10;;;;;;;2.50;1.60;;;;;;;;;;5092964;28;20020;-66
2024/03/17 06:45:57;;;;;;;4.85;1.50;;;;;;;;;;5059145;28;20060;-66
2024/03/17 06:48:43;;;;;;;7.38;2.08;;;;;;;;;;5071915;28;20107;-67
2024/03/17 06:51:29;;;;;;;5.18;1.90;;;;;;;;;;5076246;28;20024;-67
2024/03/17 06:54:14;;;;;;;13.73;2.35;;;;;;;;;;5072295;28;20107;-66
2024/03/17 06:57:00;;;;;;;5.47;2.50;;;;;;;;;;5074128;28;20501;-67
2024/03/17 06:59:48;;;;;;;5.80;2.15;;;;;;;;;;5079645;28;20017;-67
2024/03/17 07:02:33;;;;;;;7.47;3.88;;;;;;;;;;5092662;28;20085;-67
2024/03/17 07:05:19;;;;;;;6.97;2.97;;;;;;;;;;5092652;28;20497;-66
2024/03/17 07:08:05;;;;;;;9.25;3.22;;;;;;;;;;5078897;28;20029;-67
2024/03/17 07:10:58;;;;;;;11.52;4.07;;;;;;;;;;5084749;28;20016;-67
2024/03/17 07:13:44;;;;;;;7.65;2.85;;;;;;;;;;5076974;28;20024;-67
2024/03/17 07:16:31;;;;;;;8.88;3.22;;;;;;;;;;5092966;28;20016;-67
2024/03/17 07:19:17;;;;;;;4.68;2.92;;;;;;;;;;5092520;28;20504;-68
2024/03/17 07:22:03;;;;;;;7.53;2.75;;;;;;;;;;5096583;28;20024;-69
2024/03/17 07:24:55;;;;;;;4.70;2.35;;;;;;;;;;5097803;28;20459;-66
2024/03/17 07:27:40;;;;;;;4.95;2.88;;;;;;;;;;5096738;28;20074;-67
2024/03/17 07:30:26;;;;;;;6.55;2.55;;;;;;;;;;5097228;28;20159;-67
2024/03/17 07:33:11;;;;;;;12.50;2.92;;;;;;;;;;5097401;28;20024;-67
2024/03/17 07:35:59;;;;;;;9.52;2.55;;;;;;;;;;5097430;28;20435;-67
2024/03/17 07:38:46;;;;;;;4.20;2.15;;;;;;;;;;5096874;28;20055;-67
2024/03/17 07:41:31;;;;;;;4.57;2.08;;;;;;;;;;5096425;28;20508;-67
2024/03/17 07:44:17;;;;;;;5.53;2.20;;;;;;;;;;5097397;28;20020;-67
2024/03/17 07:47:07;;;;;;;1.95;1.52;;;;;;;;;;5097145;28;20051;-67
2024/03/17 07:49:52;;;;;;;16.00;2.88;;;;;;;;;;5082411;28;20027;-67
2024/03/17 07:52:38;;;;;;;4.88;1.95;;;;;;;;;;5096546;28;20027;-67
2024/03/17 07:55:24;;;;;;;6.15;2.17;;;;;;;;;;5081487;28;20028;-67
2024/03/17 07:58:09;;;;;;;5.47;1.83;;;;;;;;;;5095417;28;20016;-67
2024/03/17 08:01:02;;;;;;;9.68;2.20;;;;;;;;;;5095950;28;20031;-67
2024/03/17 08:03:55;;;;;;;7.68;1.60;;;;;;;;;;5095893;28;20024;-67
2024/03/17 08:06:41;;;;;;;8.75;2.28;;;;;;;;;;5096275;28;20056;-67
2024/03/17 08:09:28;;;;;;;4.60;1.85;;;;;;;;;;5081829;28;20032;-67
2024/03/17 08:12:13;;;;;;;2.30;1.60;;;;;;;;;;5096876;28;20025;-67
2024/03/17 08:14:59;;;;;;;8.10;1.77;;;;;;;;;;5096150;28;20074;-67
2024/03/17 08:17:45;;;;;;;5.60;1.52;;;;;;;;;;5096323;28;20103;-67
2024/03/17 08:20:30;;;;;;;3.63;1.75;;;;;;;;;;5096455;28;20032;-67
2024/03/17 08:23:16;;;;;;;4.30;1.95;;;;;;;;;;5096556;28;20031;-67
2024/03/17 08:26:02;;;;;;;3.83;1.75;;;;;;;;;;5097281;27;20481;-67
2024/03/17 08:28:48;;;;;;;6.28;1.67;;;;;;;;;;5081366;28;20036;-67
2024/03/17 08:31:33;;;;;;;5.82;1.98;;;;;;;;;;5094852;28;20102;-67
2024/03/17 08:34:19;;;;;;;5.85;1.80;;;;;;;;;;5096078;28;20032;-67
2024/03/17 08:37:04;;;;;;;3.85;1.58;;;;;;;;;;5095996;28;20536;-67
2024/03/17 08:39:50;;;;;;;6.05;2.10;;;;;;;;;;5081012;28;20043;-67
2024/03/17 08:42:36;;;;;;;4.30;1.63;;;;;;;;;;5095511;28;20086;-67
2024/03/17 08:45:21;;;;;;;5.68;1.55;;;;;;;;;;5096304;28;20449;-67
2024/03/17 08:48:07;;;;;;;2.70;1.50;;;;;;;;;;5093979;28;20027;-67
2024/03/17 08:50:53;;;;;;;7.03;2.00;;;;;;;;;;5088406;28;20451;-67
2024/03/17 08:53:39;;;;;;;14.70;2.13;;;;;;;;;;5085522;28;20099;-67
2024/03/17 08:56:25;;;;;;;8.30;1.65;;;;;;;;;;5089439;28;20025;-67
2024/03/17 08:59:12;;;;;;;4.18;1.30;;;;;;;;;;5074989;28;20116;-67
2024/03/17 09:01:58;;;;;;;2.50;1.38;;;;;;;;;;5059004;28;20063;-68
2024/03/17 09:04:44;;;;;;;2.53;1.13;;;;;;;;;;5085743;28;20432;-67
2024/03/17 09:07:29;;;;;;;5.00;1.83;;;;;;;;;;5100524;28;20024;-67
2024/03/17 09:10:15;;;;;;;6.07;1.42;;;;;;;;;;5115291;28;20043;-67
2024/03/17 09:13:00;;;;;;;4.10;1.50;;;;;;;;;;5075453;28;20520;-68
2024/03/17 09:16:02;;;;;;;4.47;1.60;;;;;;;;;;5074330;28;20036;-67
2024/03/17 09:18:48;;;;;;;2.25;1.42;;;;;;;;;;5090321;28;20024;-67
2024/03/17 09:21:34;;;;;;;2.60;1.33;;;;;;;;;;5099846;28;20080;-67
2024/03/17 09:24:20;;;;;;;4.00;1.50;;;;;;;;;;5113582;28;20055;-68
2024/03/17 09:27:05;;;;;;;3.97;1.50;;;;;;;;;;5113088;28;20055;-68
2024/03/17 09:29:51;;;;;;;2.78;1.30;;;;;;;;;;5113919;28;20016;-67
2024/03/17 09:32:36;;;;;;;4.30;1.70;;;;;;;;;;5113942;28;20039;-67
2024/03/17 09:35:22;;;;;;;2.60;1.40;;;;;;;;;;5114347;28;20077;-67
2024/03/17 09:38:08;;;;;;;3.13;1.40;;;;;;;;;;5114944;28;20023;-67
2024/03/17 09:40:57;;;;;;;6.20;1.58;;;;;;;;;;5114275;28;20062;-67
2024/03/17 09:43:43;;;;;;;2.17;1.45;;;;;;;;;;5080492;28;20016;-67
2024/03/17 09:46:29;;;;;;;5.85;1.48;;;;;;;;;;5079041;28;20107;-67
2024/03/17 09:49:18;;;;;;;6.15;1.73;;;;;;;;;;5111944;28;20020;-68
2024/03/17 09:52:04;;;;;;;2.90;1.40;;;;;;;;;;5083483;28;20051;-67
2024/03/17 09:54:58;;;;;;;4.68;1.77;;;;;;;;;;5098995;28;20108;-67
2024/03/17 09:57:44;;;;;;;2.13;1.20;;;;;;;;;;5102563;28;20027;-67
2024/03/17 10:00:30;;;;;;;4.65;1.92;;;;;;;;;;5103903;28;20016;-67
2024/03/17 10:03:58;;;;;;;6.50;1.90;;;;;;;;;;5113562;28;20053;-67
2024/03/17 10:06:46;;;;;;;4.15;1.40;;;;;;;;;;5091966;28;20024;-67
2024/03/17 10:09:32;;;;;;;3.67;1.42;;;;;;;;;;5089746;28;20055;-67
2024/03/17 10:12:26;;;;;;;3.60;1.30;;;;;;;;;;5092888;28;20031;-67
2024/03/17 10:15:12;;;;;;;4.63;1.60;;;;;;;;;;5094144;28;20448;-67
2024/03/17 10:17:58;;;;;;;3.60;1.60;;;;;;;;;;5093261;28;20026;-67
2024/03/17 10:20:43;;;;;;;4.88;1.75;;;;;;;;;;5113052;28;20106;-67
2024/03/17 10:23:29;;;;;;;3.47;1.30;;;;;;;;;;5113278;28;20024;-67
2024/03/17 10:26:15;;;;;;;3.42;1.45;;;;;;;;;;5100112;28;20023;-67
2024/03/17 10:29:01;;;;;;;4.35;1.95;;;;;;;;;;5098049;28;20051;-67
2024/03/17 10:31:48;;;;;;;4.38;1.67;;;;;;;;;;5112250;28;20063;-67
2024/03/17 10:34:37;;;;;;;3.80;1.30;;;;;;;;;;5090772;28;20050;-67
2024/03/17 10:37:25;;;;;;;7.53;1.83;;;;;;;;;;5112282;27;20015;-67
2024/03/17 10:40:12;;;;;;;3.83;1.52;;;;;;;;;;5105892;28;20019;-67
2024/03/17 10:42:59;;;;;;;2.17;1.58;;;;;;;;;;5081843;28;20388;-68
2024/03/17 10:45:45;;;;;;;4.85;2.10;;;;;;;;;;5092449;28;20032;-67
2024/03/17 10:48:34;;;;;;;2.00;1.50;;;;;;;;;;5093565;28;20024;-66
2024/03/17 10:51:19;;;;;;;1.98;1.50;;;;;;;;;;5078441;28;20032;-67
2024/03/17 10:54:05;;;;;;;2.97;1.33;;;;;;;;;;5092637;28;20028;-67
2024/03/17 10:56:51;;;;;;;3.05;1.73;;;;;;;;;;5084299;28;20022;-67
2024/03/17 10:59:41;;;;;;;2.08;1.48;;;;;;;;;;5098289;28;20015;-67
2024/03/17 11:02:35;;;;;;;5.05;1.83;;;;;;;;;;5099272;28;20382;-67
2024/03/17 11:05:23;;;;;;;3.72;1.63;;;;;;;;;;5112428;28;20494;-68
2024/03/17 11:08:14;;;;;;;2.67;1.50;;;;;;;;;;5099424;28;20106;-67
2024/03/17 11:11:00;;;;;;;2.95;1.17;;;;;;;;;;5095942;28;20102;-67
2024/03/17 11:13:46;;;;;;;8.07;1.60;;;;;;;;;;5093596;28;20024;-68
2024/03/17 11:16:31;;;;;;;4.68;1.60;;;;;;;;;;5092426;28;20058;-67
2024/03/17 11:19:17;;;;;;;2.17;1.42;;;;;;;;;;5107278;28;20020;-67
2024/03/17 11:22:47;;;;;;;5.00;1.40;;;;;;;;;;5113527;28;20028;-67
2024/03/17 11:25:36;;;;;;;4.20;1.45;;;;;;;;;;5106958;28;20385;-67
2024/03/17 11:28:44;;;;;;;5.15;1.35;;;;;;;;;;5100479;28;20113;-67
2024/03/17 11:31:40;;;;;;;4.95;1.45;;;;;;;;;;5076591;28;20028;-67
2024/03/17 11:34:26;;;;;;;3.30;1.05;;;;;;;;;;5074464;28;20039;-67
2024/03/17 11:37:41;;;;;;;3.75;1.50;;;;;;;;;;5073108;28;20023;-67
2024/03/17 11:40:27;;;;;;;3.60;1.50;;;;;;;;;;5071904;28;20059;-68
2024/03/17 11:43:16;;;;;;;3.42;1.50;;;;;;;;;;5075282;28;20027;-67
2024/03/17 11:46:03;;;;;;;4.00;1.85;;;;;;;;;;5078140;28;20085;-68
2024/03/17 11:48:49;;;;;;;2.83;1.70;;;;;;;;;;5095747;28;20489;-67
2024/03/17 11:51:34;;;;;;;4.63;1.42;;;;;;;;;;5112453;28;20031;-67
2024/03/17 11:54:27;;;;;;;4.07;1.42;;;;;;;;;;5112205;28;20023;-67
2024/03/17 11:57:14;;;;;;;3.45;1.83;;;;;;;;;;5098485;28;20026;-67
2024/03/17 11:59:59;;;;;;;3.05;1.42;;;;;;;;;;5098450;28;20050;-67
2024/03/17 12:02:48;;;;;;;5.20;1.63;;;;;;;;;;5112276;28;20019;-68
2024/03/17 12:05:33;;;;;;;3.45;1.65;;;;;;;;;;5112101;28;20153;-67
2024/03/17 12:08:20;;;;;;;5.10;1.48;;;;;;;;;;5102775;27;20408;-67
2024/03/17 12:11:17;;;;;;;5.25;1.83;;;;;;;;;;5117069;27;20042;-67
2024/03/17 12:14:15;;;;;;;4.90;1.83;;;;;;;;;;5100543;28;20019;-67
2024/03/17 12:17:01;;;;;;;5.50;1.85;;;;;;;;;;5116485;28;20043;-67
2024/03/17 12:19:47;;;;;;;5.43;1.50;;;;;;;;;;5115252;28;20023;-67
2024/03/17 12:22:36;;;;;;;3.80;1.55;;;;;;;;;;5114683;28;20488;-67
2024/03/17 12:25:23;;;;;;;3.97;1.77;;;;;;;;;;5115562;28;20110;-68
2024/03/17 12:28:16;;;;;;;4.65;1.48;;;;;;;;;;5115417;28;20443;-67
2024/03/17 12:31:02;;;;;;;6.80;1.60;;;;;;;;;;5113775;28;20032;-68
2024/03/17 12:33:48;;;;;;;3.22;1.48;;;;;;;;;;5099543;28;20400;-67
2024/03/17 12:36:34;;;;;;;3.10;1.55;;;;;;;;;;5100947;28;20081;-67
2024/03/17 12:39:22;;;;;;;3.50;1.55;;;;;;;;;;5115291;28;20069;-67
2024/03/17 12:42:09;;;;;;;3.22;1.40;;;;;;;;;;5115981;28;20027;-67
2024/03/17 12:44:55;;;;;;;2.15;1.42;;;;;;;;;;5115128;28;20607;-68
2024/03/17 12:47:48;;;;;;;3.50;1.50;;;;;;;;;;5115731;28;20032;-67
2024/03/17 12:50:33;;;;;;;3.88;1.10;;;;;;;;;;5083295;28;20587;-68
2024/03/17 12:53:20;;;;;;;4.40;1.58;;;;;;;;;;5079380;28;20393;-67
2024/03/17 13:02:15;;;;;;;3.50;1.55;;;;;;;;;;5103819;28;20023;-67
2024/03/17 13:05:14;;;;;;;3.85;1.52;;;;;;;;;;5114963;28;20051;-68
2024/03/17 13:08:01;;;;;;;4.38;1.65;;;;;;;;;;5095252;28;20020;-68
2024/03/17 13:10:47;;;;;;;4.28;1.63;;;;;;;;;;5114289;28;20051;-67
2024/03/17 13:13:32;;;;;;;2.35;1.45;;;;;;;;;;5115274;28;20058;-68
2024/03/17 13:16:18;;;;;;;5.13;1.75;;;;;;;;;;5114695;28;20400;-67
2024/03/17 13:19:04;;;;;;;5.15;1.85;;;;;;;;;;5114452;28;20024;-68
2024/03/17 13:21:49;;;;;;;4.90;2.03;;;;;;;;;;5114215;28;20049;-68
2024/03/17 13:24:35;;;;;;;3.25;1.50;;;;;;;;;;5113710;28;20485;-68
2024/03/17 13:27:21;;;;;;;4.68;2.20;;;;;;;;;;5115665;28;20425;-68
2024/03/17 13:30:08;;;;;;;2.97;1.63;;;;;;;;;;5113820;28;20016;-68
2024/03/17 13:32:58;;;;;;;2.40;1.60;;;;;;;;;;5115043;28;20027;-68
2024/03/17 13:35:43;;;;;;;5.15;1.88;;;;;;;;;;5091773;28;20019;-69
2024/03/17 13:38:29;;;;;;;3.95;1.42;;;;;;;;;;5100695;28;20019;-68
2024/03/17 13:41:15;;;;;;;2.78;1.70;;;;;;;;;;5114919;28;20050;-68
2024/03/17 13:44:00;;;;;;;4.15;1.38;;;;;;;;;;5114671;28;20405;-68
2024/03/17 13:46:47;;;;;;;3.35;1.35;;;;;;;;;;5115127;28;20047;-68
2024/03/17 13:49:33;;;;;;;4.75;1.67;;;;;;;;;;5114303;28;20023;-68
2024/03/17 13:52:19;;;;;;;2.92;1.38;;;;;;;;;;5114240;28;20026;-68
2024/03/17 13:55:06;;;;;;;3.72;1.73;;;;;;;;;;5115157;28;20026;-68
2024/03/17 13:57:54;;;;;;;3.70;1.63;;;;;;;;;;5100303;28;20106;-68
2024/03/17 14:00:42;;;;;;;5.65;2.08;;;;;;;;;;5114278;28;20102;-67
2024/03/17 14:03:28;;;;;;;3.38;1.63;;;;;;;;;;5114731;28;20028;-68
2024/03/17 14:06:13;;;;;;;3.85;1.80;;;;;;;;;;5114593;28;20485;-68
2024/03/17 14:08:59;;;;;;;3.95;2.10;;;;;;;;;;5114663;28;20054;-68
2024/03/17 14:11:45;;;;;;;6.32;1.77;;;;;;;;;;5113787;28;20028;-68
2024/03/17 14:14:31;;;;;;;5.60;1.75;;;;;;;;;;5099093;28;20032;-68
2024/03/17 14:17:17;;;;;;;2.55;1.80;;;;;;;;;;5114778;28;20034;-68
2024/03/17 14:20:03;;;;;;;3.60;1.42;;;;;;;;;;5114288;28;20030;-67
2024/03/17 14:22:57;;;;;;;2.63;1.65;;;;;;;;;;5114721;28;20481;-68
2024/03/17 14:25:43;;;;;;;3.67;1.75;;;;;;;;;;5113187;28;20024;-67
2024/03/17 14:28:28;;;;;;;4.72;2.05;;;;;;;;;;5113892;28;20067;-67
2024/03/17 14:31:14;;;;;;;6.35;1.73;;;;;;;;;;5112361;28;20035;-67
2024/03/17 14:34:00;;;;;;;3.65;1.92;;;;;;;;;;5099356;28;20488;-67
2024/03/17 14:36:45;;;;;;;5.65;1.75;;;;;;;;;;5114617;27;20090;-67
2024/03/17 14:39:31;;;;;;;5.05;1.60;;;;;;;;;;5114943;28;20432;-67
2024/03/17 14:42:17;;;;;;;2.30;1.63;;;;;;;;;;5113879;28;20024;-68
2024/03/17 14:45:04;;;;;;;3.47;1.73;;;;;;;;;;5113980;28;20481;-68
2024/03/17 14:47:51;;;;;;;5.40;1.92;;;;;;;;;;5109987;28;20107;-67
2024/03/17 14:50:37;;;;;;;3.35;1.60;;;;;;;;;;5088314;28;20028;-67
2024/03/17 14:53:23;;;;;;;4.25;1.95;;;;;;;;;;5092675;28;20024;-67
2024/03/17 14:56:09;;;;;;;2.03;1.60;;;;;;;;;;5092811;28;20024;-67
2024/03/17 14:58:55;;;;;;;3.45;1.55;;;;;;;;;;5113297;28;20110;-67
2024/03/17 15:01:40;;;;;;;1.75;1.50;;;;;;;;;;5097156;28;20514;-67
2024/03/17 15:04:27;;;;;;;3.30;1.80;;;;;;;;;;5099441;28;20078;-67
2024/03/17 15:07:12;;;;;;;6.80;2.92;;;;;;;;;;5092422;28;20054;-68
2024/03/17 15:09:58;;;;;;;3.22;1.60;;;;;;;;;;5062882;28;20393;-67
2024/03/17 15:12:44;;;;;;;4.40;1.30;;;;;;;;;;5072611;28;20044;-67
2024/03/17 15:15:30;;;;;;;4.53;1.60;;;;;;;;;;5090568;28;20020;-67
2024/03/17 15:18:16;;;;;;;6.43;1.73;;;;;;;;;;5097890;28;20023;-67
2024/03/17 15:21:01;;;;;;;2.90;2.03;;;;;;;;;;5099571;28;20086;-67
2024/03/17 15:23:48;;;;;;;3.40;1.88;;;;;;;;;;5111196;28;20445;-67
2024/03/17 15:26:33;;;;;;;2.53;1.70;;;;;;;;;;5114099;28;20024;-67
2024/03/17 15:29:19;;;;;;;2.47;1.58;;;;;;;;;;5112825;28;20377;-67
2024/03/17 15:32:05;;;;;;;2.08;1.45;;;;;;;;;;5076608;28;20036;-67
2024/03/17 15:34:50;;;;;;;2.67;1.90;;;;;;;;;;5071795;28;20031;-67
2024/03/17 15:37:36;;;;;;;5.63;1.88;;;;;;;;;;5076321;28;20017;-66
2024/03/17 15:40:22;;;;;;;3.35;1.58;;;;;;;;;;5091107;28;20032;-67
2024/03/17 15:43:08;;;;;;;2.28;1.52;;;;;;;;;;5071649;28;20034;-67
2024/03/17 15:45:54;;;;;;;5.22;2.15;;;;;;;;;;5096375;28;20401;-67
2024/03/17 15:48:39;;;;;;;5.88;2.17;;;;;;;;;;5089296;28;20059;-67
2024/03/17 15:51:25;;;;;;;11.63;2.63;;;;;;;;;;5075149;28;20100;-67
2024/03/17 15:54:11;;;;;;;5.68;2.50;;;;;;;;;;5078842;28;20028;-66
2024/03/17 15:56:56;;;;;;;3.28;1.77;;;;;;;;;;5078872;28;20027;-67
2024/03/17 15:59:45;;;;;;;3.85;1.80;;;;;;;;;;5078881;28;20050;-67
2024/03/17 16:02:31;;;;;;;4.68;1.63;;;;;;;;;;5116265;28;20505;-67
2024/03/17 16:05:19;;;;;;;2.50;1.50;;;;;;;;;;5094224;28;20077;-67
2024/03/17 16:08:05;;;;;;;2.15;1.42;;;;;;;;;;5061869;28;20031;-67
2024/03/17 16:10:55;;;;;;;4.50;1.77;;;;;;;;;;5075019;28;20535;-67
2024/03/17 16:13:41;;;;;;;3.60;1.95;;;;;;;;;;5088121;28;20500;-67
2024/03/17 16:16:29;;;;;;;3.65;1.92;;;;;;;;;;5116096;28;20080;-67
2024/03/17 16:19:15;;;;;;;2.20;1.83;;;;;;;;;;5107072;28;20066;-67
2024/03/17 16:22:03;;;;;;;1.88;1.65;;;;;;;;;;5095871;28;20020;-67
2024/03/17 16:24:49;;;;;;;5.55;2.30;;;;;;;;;;5105124;28;20023;-67
2024/03/17 16:27:35;;;;;;;6.30;2.55;;;;;;;;;;5115036;28;20028;-67
2024/03/17 16:30:20;;;;;;;5.60;2.63;;;;;;;;;;5108510;28;20393;-67
2024/03/17 16:33:06;;;;;;;4.70;1.73;;;;;;;;;;5094666;28;20031;-67
2024/03/17 16:35:54;;;;;;;3.42;1.83;;;;;;;;;;5095582;28;20016;-67
2024/03/17 16:38:40;;;;;;;4.22;1.75;;;;;;;;;;5080804;28;20030;-66
2024/03/17 16:41:25;;;;;;;3.83;1.73;;;;;;;;;;5116498;28;20019;-67
2024/03/17 16:44:15;;;;;;;3.45;1.90;;;;;;;;;;5115623;28;20382;-67
2024/03/17 16:47:07;;;;;;;;;;;;;;;;;;5097467;28;20028;-67